createdAt,value
2022-10-09T00:01:33.366Z,101255.44
2022-10-09T00:04:21.898Z,101253.56
2022-10-09T00:07:11.636Z,101257.91
2022-10-09T00:10:00.084Z,101267.78
2022-10-09T00:12:48.763Z,101266.13
2022-10-09T00:15:40.341Z,101263.25
2022-10-09T00:18:28.762Z,101261.78
2022-10-09T00:21:20.463Z,101267.78
2022-10-09T00:24:10.959Z,101261.59
2022-10-09T00:26:59.576Z,101258.75
2022-10-09T00:29:47.971Z,101258.28
2022-10-09T00:32:36.440Z,101260.31
2022-10-09T00:35:25.105Z,101262.34
2022-10-09T00:38:14.018Z,101258.00
2022-10-09T00:41:05.726Z,101256.13
2022-10-09T00:43:55.875Z,101260.47
2022-10-09T00:46:47.734Z,101259.00
2022-10-09T00:49:36.473Z,101265.19
2022-10-09T00:52:25.604Z,101258.53
2022-10-09T00:55:14.371Z,101262.22
2022-10-09T00:58:04.334Z,101263.03
2022-10-09T01:00:52.814Z,101262.22
2022-10-09T01:03:42.081Z,101268.59
2022-10-09T01:06:40.670Z,101271.25
2022-10-09T01:09:35.778Z,101275.22
2022-10-09T01:12:33.101Z,101270.41
2022-10-09T01:15:28.054Z,101269.25
2022-10-09T01:18:21.419Z,101267.94
2022-10-09T01:21:12.414Z,101267.56
2022-10-09T01:24:10.442Z,101269.59
2022-10-09T01:27:06.296Z,101270.97
2022-10-09T01:29:57.596Z,101273.63
2022-10-09T01:32:48.890Z,101276.31
2022-10-09T01:35:37.496Z,101274.97
2022-10-09T01:38:26.146Z,101278.81
2022-10-09T01:41:14.649Z,101277.63
2022-10-09T01:44:04.497Z,101278.66
2022-10-09T01:46:53.365Z,101275.28
2022-10-09T01:49:45.774Z,101287.69
2022-10-09T01:52:43.022Z,101298.53
2022-10-09T01:55:37.889Z,101295.03
2022-10-09T01:58:31.086Z,101291.16
2022-10-09T02:01:23.369Z,101295.03
2022-10-09T02:04:13.593Z,101296.69
2022-10-09T02:07:01.963Z,101297.53
2022-10-09T02:09:50.473Z,101302.03
2022-10-09T02:12:41.004Z,101302.03
2022-10-09T02:15:33.457Z,101308.38
2022-10-09T02:18:28.021Z,101307.06
2022-10-09T02:21:18.112Z,101312.72
2022-10-09T02:24:08.563Z,101316.41
2022-10-09T02:26:57.751Z,101310.59
2022-10-09T02:29:49.567Z,101310.41
2022-10-09T02:32:38.016Z,101308.59
2022-10-09T02:35:27.975Z,101310.25
2022-10-09T02:38:20.759Z,101314.41
2022-10-09T02:41:09.275Z,101324.25
2022-10-09T02:43:57.801Z,101315.38
2022-10-09T02:46:46.276Z,101328.31
2022-10-09T02:49:34.836Z,101328.44
2022-10-09T02:52:24.600Z,101318.44
2022-10-09T02:55:13.059Z,101329.47
2022-10-09T02:58:01.463Z,101329.63
2022-10-09T03:00:50.225Z,101325.13
2022-10-09T03:03:38.762Z,101328.63
2022-10-09T03:06:28.279Z,101331.13
2022-10-09T03:09:18.203Z,101336.47
2022-10-09T03:12:06.935Z,101334.41
2022-10-09T03:14:55.305Z,101339.13
2022-10-09T03:17:43.762Z,101346.13
2022-10-09T03:20:32.414Z,101352.81
2022-10-09T03:23:20.889Z,101347.66
2022-10-09T03:26:12.252Z,101351.84
2022-10-09T03:29:00.672Z,101354.19
2022-10-09T03:31:53.311Z,101347.84
2022-10-09T03:34:42.098Z,101346.19
2022-10-09T03:37:33.875Z,101359.88
2022-10-09T03:40:22.348Z,101363.88
2022-10-09T03:43:12.127Z,101366.56
2022-10-09T03:46:01.244Z,101374.03
2022-10-09T03:48:49.756Z,101369.88
2022-10-09T03:51:38.221Z,101369.88
2022-10-09T03:54:26.720Z,101362.53
2022-10-09T03:57:16.616Z,101370.72
2022-10-09T04:00:07.907Z,101377.25
2022-10-09T04:02:56.392Z,101371.91
2022-10-09T04:05:44.901Z,101374.56
2022-10-09T04:08:33.366Z,101380.22
2022-10-09T04:11:21.940Z,101379.88
2022-10-09T04:14:10.805Z,101387.53
2022-10-09T04:17:00.624Z,101383.56
2022-10-09T04:19:49.113Z,101380.22
2022-10-09T04:22:37.507Z,101385.25
2022-10-09T04:25:26.173Z,101388.44
2022-10-09T04:28:14.829Z,101381.25
2022-10-09T04:31:03.323Z,101382.06
2022-10-09T04:33:56.303Z,101381.63
2022-10-09T04:36:44.861Z,101378.59
2022-10-09T04:39:33.337Z,101390.28
2022-10-09T04:42:21.738Z,101383.75
2022-10-09T04:45:11.496Z,101384.09
2022-10-09T04:47:59.944Z,101384.09
2022-10-09T04:50:49.865Z,101381.63
2022-10-09T04:53:39.085Z,101387.78
2022-10-09T04:56:27.513Z,101379.41
2022-10-09T04:59:17.320Z,101386.59
2022-10-09T05:02:05.818Z,101383.28
2022-10-09T05:04:54.261Z,101392.78
2022-10-09T05:07:44.030Z,101391.97
2022-10-09T05:10:32.846Z,101385.91
2022-10-09T05:13:21.324Z,101395.28
2022-10-09T05:16:12.820Z,101400.63
2022-10-09T05:19:01.608Z,101405.97
2022-10-09T05:21:50.302Z,101409.66
2022-10-09T05:24:42.253Z,101408.16
2022-10-09T05:27:30.713Z,101416.97
2022-10-09T05:30:20.476Z,101419.31
2022-10-09T05:33:08.925Z,101420.00
2022-10-09T05:36:02.306Z,101423.34
2022-10-09T05:38:50.911Z,101426.00
2022-10-09T05:41:40.764Z,101424.19
2022-10-09T05:44:30.743Z,101422.00
2022-10-09T05:47:20.588Z,101422.84
2022-10-09T05:50:11.886Z,101421.16
2022-10-09T05:53:00.269Z,101424.84
2022-10-09T05:55:48.649Z,101423.03
2022-10-09T05:58:38.471Z,101421.72
2022-10-09T06:01:28.506Z,101433.06
2022-10-09T06:04:18.733Z,101430.56
2022-10-09T06:07:08.337Z,101426.38
2022-10-09T06:09:56.875Z,101424.41
2022-10-09T06:12:45.276Z,101431.41
2022-10-09T06:15:35.111Z,101428.09
2022-10-09T06:18:23.597Z,101429.06
2022-10-09T06:21:12.023Z,101434.59
2022-10-09T06:24:01.972Z,101436.91
2022-10-09T06:26:50.367Z,101445.09
2022-10-09T06:29:38.869Z,101450.63
2022-10-09T06:32:28.745Z,101457.81
2022-10-09T06:35:17.359Z,101454.81
2022-10-09T06:38:05.877Z,101455.47
2022-10-09T06:40:54.286Z,101454.94
2022-10-09T06:43:43.287Z,101459.78
2022-10-09T06:46:33.892Z,101464.78
2022-10-09T06:49:23.750Z,101452.94
2022-10-09T06:52:12.149Z,101459.44
2022-10-09T06:55:00.644Z,101463.75
2022-10-09T06:57:49.098Z,101472.78
2022-10-09T07:00:37.571Z,101467.09
2022-10-09T07:03:25.954Z,101473.59
2022-10-09T07:06:19.527Z,101477.78
2022-10-09T07:09:09.919Z,101486.81
2022-10-09T07:11:58.363Z,101484.78
2022-10-09T07:14:46.933Z,101491.78
2022-10-09T07:17:35.798Z,101484.13
2022-10-09T07:20:24.404Z,101488.47
2022-10-09T07:23:14.376Z,101490.13
2022-10-09T07:26:03.695Z,101484.63
2022-10-09T07:28:52.398Z,101490.13
2022-10-09T07:31:41.116Z,101491.78
2022-10-09T07:34:29.653Z,101497.16
2022-10-09T07:37:18.228Z,101498.44
2022-10-09T07:40:09.119Z,101503.78
2022-10-09T07:43:00.743Z,101503.34
2022-10-09T07:45:49.512Z,101503.50
2022-10-09T07:48:38.074Z,101511.38
2022-10-09T07:51:27.737Z,101506.84
2022-10-09T07:54:16.297Z,101509.16
2022-10-09T07:57:06.892Z,101512.13
2022-10-09T07:59:55.712Z,101509.75
2022-10-09T08:02:44.341Z,101511.53
2022-10-09T08:05:32.835Z,101514.78
2022-10-09T08:08:21.247Z,101510.13
2022-10-09T08:11:11.087Z,101507.47
2022-10-09T08:14:00.987Z,101511.38
2022-10-09T08:16:50.021Z,101509.50
2022-10-09T08:19:38.460Z,101504.78
2022-10-09T08:22:26.968Z,101506.06
2022-10-09T08:25:15.445Z,101508.53
2022-10-09T08:28:04.448Z,101500.25
2022-10-09T08:30:54.415Z,101498.25
2022-10-09T08:33:43.784Z,101502.16
2022-10-09T08:36:32.672Z,101503.16
2022-10-09T08:39:21.179Z,101497.97
2022-10-09T08:42:19.712Z,101492.06
2022-10-09T08:45:14.271Z,101503.06
2022-10-09T08:48:06.461Z,101499.03
2022-10-09T08:50:56.376Z,101507.41
2022-10-09T08:53:49.694Z,101501.69
2022-10-09T08:56:39.275Z,101497.69
2022-10-09T08:59:27.889Z,101499.09
2022-10-09T09:02:30.832Z,101498.00
2022-10-09T09:05:30.557Z,101498.00
2022-10-09T09:08:24.670Z,101499.38
2022-10-09T09:11:21.859Z,101495.50
2022-10-09T09:14:21.237Z,101493.38
2022-10-09T09:17:14.070Z,101488.75
2022-10-09T09:20:11.501Z,101494.47
2022-10-09T09:23:03.117Z,101487.44
2022-10-09T09:25:51.600Z,101491.06
2022-10-09T09:28:41.374Z,101493.97
2022-10-09T09:31:35.533Z,101484.41
2022-10-09T09:34:28.568Z,101492.78
2022-10-09T09:37:17.280Z,101484.41
2022-10-09T09:40:35.633Z,101489.03
2022-10-09T09:43:19.431Z,101485.06
2022-10-09T09:46:16.053Z,101471.72
2022-10-09T09:49:09.307Z,101472.44
2022-10-09T09:52:00.088Z,101469.13
2022-10-09T09:54:49.960Z,101464.69
2022-10-09T09:57:44.402Z,101471.13
2022-10-09T10:00:33.227Z,101465.75
2022-10-09T10:03:21.761Z,101465.97
2022-10-09T10:06:23.356Z,101460.41
2022-10-09T10:09:15.841Z,101464.75
2022-10-09T10:12:06.032Z,101458.31
2022-10-09T10:14:55.850Z,101456.91
2022-10-09T10:17:44.311Z,101459.59
2022-10-09T10:20:34.145Z,101455.25
2022-10-09T10:23:33.046Z,101455.25
2022-10-09T10:26:25.947Z,101450.59
2022-10-09T10:29:18.447Z,101446.91
2022-10-09T10:32:12.953Z,101437.00
2022-10-09T10:35:04.964Z,101442.19
2022-10-09T10:37:57.969Z,101434.16
2022-10-09T10:40:52.469Z,101432.16
2022-10-09T10:43:44.106Z,101435.84
2022-10-09T10:46:34.187Z,101428.22
2022-10-09T10:49:26.858Z,101431.91
2022-10-09T10:52:26.348Z,101420.91
2022-10-09T10:55:29.089Z,101418.59
2022-10-09T10:58:25.614Z,101421.47
2022-10-09T11:01:24.512Z,101415.72
2022-10-09T11:04:32.777Z,101403.16
2022-10-09T11:07:26.913Z,101404.84
2022-10-09T11:10:23.715Z,101405.09
2022-10-09T11:13:15.811Z,101401.47
2022-10-09T11:16:20.988Z,101399.31
2022-10-09T11:19:22.985Z,101397.66
2022-10-09T11:22:22.477Z,101383.97
2022-10-09T11:25:21.285Z,101377.69
2022-10-09T11:28:14.620Z,101378.03
2022-10-09T11:31:10.053Z,101363.53
2022-10-09T11:34:02.160Z,101361.44
2022-10-09T11:36:53.539Z,101359.00
2022-10-09T11:39:43.637Z,101350.00
2022-10-09T11:42:32.461Z,101348.00
2022-10-09T11:45:24.327Z,101347.91
2022-10-09T11:48:19.925Z,101343.53
2022-10-09T11:51:14.343Z,101327.81
2022-10-09T11:54:04.795Z,101331.50
2022-10-09T11:57:05.164Z,101321.75
2022-10-09T12:00:05.609Z,101323.28
2022-10-09T12:02:58.883Z,101315.00
2022-10-09T12:05:48.397Z,101316.16
2022-10-09T12:08:38.313Z,101307.84
2022-10-09T12:11:27.029Z,101302.84
2022-10-09T12:14:26.873Z,101292.06
2022-10-09T12:17:31.225Z,101291.56
2022-10-09T12:20:22.168Z,101290.91
2022-10-09T12:23:26.291Z,101279.88
2022-10-09T12:26:16.019Z,101269.63
2022-10-09T12:29:05.826Z,101273.47
2022-10-09T12:31:58.581Z,101275.63
2022-10-09T12:34:49.453Z,101274.13
2022-10-09T12:37:38.344Z,101265.22
2022-10-09T12:40:29.452Z,101266.53
2022-10-09T12:43:19.700Z,101259.63
2022-10-09T12:46:08.174Z,101256.44
2022-10-09T12:48:58.181Z,101264.75
2022-10-09T12:51:55.307Z,101245.53
2022-10-09T12:54:46.295Z,101252.81
2022-10-09T12:57:34.786Z,101252.38
2022-10-09T13:00:23.393Z,101241.84
2022-10-09T13:03:25.827Z,101245.00
2022-10-09T13:06:20.363Z,101237.19
2022-10-09T13:09:19.762Z,101228.59
2022-10-09T13:12:13.967Z,101231.94
2022-10-09T13:15:03.787Z,101218.38
2022-10-09T13:17:52.530Z,101220.25
2022-10-09T13:20:41.227Z,101220.53
2022-10-09T13:23:34.190Z,101216.84
2022-10-09T13:26:28.808Z,101209.34
2022-10-09T13:29:17.337Z,101201.16
2022-10-09T13:32:06.956Z,101210.31
2022-10-09T13:34:58.519Z,101210.41
2022-10-09T13:37:47.908Z,101210.41
2022-10-09T13:40:38.106Z,101194.00
2022-10-09T13:43:30.580Z,101207.75
2022-10-09T13:46:19.057Z,101193.75
2022-10-09T13:49:07.597Z,101184.31
2022-10-09T13:51:57.143Z,101188.00
2022-10-09T13:54:47.840Z,101181.03
2022-10-09T13:57:37.596Z,101178.44
2022-10-09T14:00:26.078Z,101177.78
2022-10-09T14:03:14.553Z,101175.94
2022-10-09T14:06:06.785Z,101168.56
2022-10-09T14:08:56.464Z,101166.88
2022-10-09T14:11:44.909Z,101170.56
2022-10-09T14:14:34.815Z,101166.88
2022-10-09T14:17:23.210Z,101163.22
2022-10-09T14:20:13.578Z,101163.66
2022-10-09T14:23:02.012Z,101158.31
2022-10-09T14:25:53.145Z,101155.00
2022-10-09T14:28:41.822Z,101155.84
2022-10-09T14:31:32.190Z,101145.31
2022-10-09T14:34:22.361Z,101148.47
2022-10-09T14:37:23.931Z,101144.78
2022-10-09T14:40:24.536Z,101141.53
2022-10-09T14:43:13.455Z,101137.84
2022-10-09T14:46:09.580Z,101126.88
2022-10-09T14:48:59.363Z,101123.38
2022-10-09T14:51:47.751Z,101114.72
2022-10-09T14:54:37.101Z,101127.44
2022-10-09T14:57:25.556Z,101118.75
2022-10-09T15:00:17.530Z,101118.75
2022-10-09T15:03:07.338Z,101118.41
2022-10-09T15:05:59.958Z,101112.69
2022-10-09T15:08:48.352Z,101105.31
2022-10-09T15:11:37.713Z,101109.00
2022-10-09T15:14:26.261Z,101106.31
2022-10-09T15:17:17.783Z,101104.56
2022-10-09T15:20:06.775Z,101104.91
2022-10-09T15:22:56.655Z,101105.31
2022-10-09T15:25:51.681Z,101103.66
2022-10-09T15:28:41.855Z,101107.59
2022-10-09T15:31:34.209Z,101096.25
2022-10-09T15:34:22.634Z,101098.94
2022-10-09T15:37:13.363Z,101096.25
2022-10-09T15:40:03.457Z,101099.94
2022-10-09T15:42:53.509Z,101088.78
2022-10-09T15:45:42.081Z,101091.47
2022-10-09T15:48:30.969Z,101098.94
2022-10-09T15:51:19.704Z,101096.63
2022-10-09T15:54:15.467Z,101092.03
2022-10-09T15:57:05.300Z,101086.69
2022-10-09T15:59:53.748Z,101095.94
2022-10-09T16:02:42.370Z,101088.72
2022-10-09T16:05:30.985Z,101092.41
2022-10-09T16:08:20.035Z,101088.25
2022-10-09T16:11:09.856Z,101092.78
2022-10-09T16:14:00.645Z,101096.94
2022-10-09T16:16:53.658Z,101094.44
2022-10-09T16:19:42.102Z,101099.16
2022-10-09T16:22:30.508Z,101091.59
2022-10-09T16:25:19.136Z,101090.75
2022-10-09T16:28:08.617Z,101085.78
2022-10-09T16:30:58.715Z,101097.28
2022-10-09T16:33:47.155Z,101096.47
2022-10-09T16:36:35.764Z,101092.78
2022-10-09T16:39:24.252Z,101089.84
2022-10-09T16:42:12.696Z,101093.88
2022-10-09T16:45:02.055Z,101083.19
2022-10-09T16:47:52.040Z,101093.88
2022-10-09T16:50:42.860Z,101096.75
2022-10-09T16:53:31.603Z,101102.34
2022-10-09T16:56:21.940Z,101100.69
2022-10-09T16:59:13.439Z,101096.09
2022-10-09T17:02:03.252Z,101103.81
2022-10-09T17:04:53.076Z,101094.34
2022-10-09T17:07:41.531Z,101088.53
2022-10-09T17:10:32.709Z,101083.81
2022-10-09T17:13:23.803Z,101083.28
2022-10-09T17:16:18.046Z,101078.03
2022-10-09T17:19:07.337Z,101075.63
2022-10-09T17:21:59.550Z,101078.59
2022-10-09T17:24:48.046Z,101074.88
2022-10-09T17:27:36.639Z,101072.84
2022-10-09T17:30:26.647Z,101074.50
2022-10-09T17:33:18.976Z,101070.25
2022-10-09T17:36:08.852Z,101071.03
2022-10-09T17:38:59.014Z,101071.09
2022-10-09T17:41:49.137Z,101070.81
2022-10-09T17:44:37.719Z,101070.66
2022-10-09T17:47:29.655Z,101067.41
2022-10-09T17:50:18.363Z,101070.84
2022-10-09T17:53:08.728Z,101068.09
2022-10-09T17:55:59.077Z,101068.97
2022-10-09T17:58:49.463Z,101069.28
2022-10-09T18:01:38.223Z,101075.88
2022-10-09T18:04:29.122Z,101072.19
2022-10-09T18:07:19.445Z,101076.06
2022-10-09T18:10:08.923Z,101076.53
2022-10-09T18:12:59.861Z,101072.97
2022-10-09T18:15:48.529Z,101065.28
2022-10-09T18:18:39.191Z,101065.38
2022-10-09T18:21:27.793Z,101067.47
2022-10-09T18:24:17.037Z,101066.22
2022-10-09T18:27:05.662Z,101063.38
2022-10-09T18:29:55.505Z,101068.25
2022-10-09T18:32:43.917Z,101063.38
2022-10-09T18:35:32.346Z,101069.19
2022-10-09T18:38:23.310Z,101063.44
2022-10-09T18:41:11.763Z,101059.22
2022-10-09T18:44:01.131Z,101056.91
2022-10-09T18:46:56.314Z,101056.28
2022-10-09T18:49:47.127Z,101059.31
2022-10-09T18:52:39.103Z,101052.69
2022-10-09T18:55:30.759Z,101055.75
2022-10-09T18:58:22.993Z,101054.50
2022-10-09T19:01:11.887Z,101056.28
2022-10-09T19:04:12.478Z,101052.94
2022-10-09T19:07:01.769Z,101054.25
2022-10-09T19:09:57.119Z,101047.66
2022-10-09T19:12:48.834Z,101041.50
2022-10-09T19:15:37.765Z,101045.19
2022-10-09T19:18:26.887Z,101038.84
2022-10-09T19:21:17.015Z,101043.53
2022-10-09T19:24:06.999Z,101036.66
2022-10-09T19:26:55.697Z,101033.50
2022-10-09T19:29:44.099Z,101032.03
2022-10-09T19:32:33.927Z,101032.69
2022-10-09T19:35:25.685Z,101032.31
2022-10-09T19:38:22.016Z,101024.00
2022-10-09T19:41:12.107Z,101022.91
2022-10-09T19:44:01.066Z,101027.59
2022-10-09T19:46:49.645Z,101024.53
2022-10-09T19:49:40.550Z,101020.84
2022-10-09T19:52:29.019Z,101022.50
2022-10-09T19:55:19.286Z,101013.13
2022-10-09T19:58:08.550Z,101018.31
2022-10-09T20:01:00.194Z,101013.25
2022-10-09T20:03:50.911Z,101015.28
2022-10-09T20:06:48.515Z,101007.13
2022-10-09T20:09:37.055Z,101008.78
2022-10-09T20:12:27.512Z,101006.78
2022-10-09T20:15:15.998Z,101001.03
2022-10-09T20:18:04.524Z,100997.53
2022-10-09T20:20:53.021Z,100996.78
2022-10-09T20:23:42.782Z,100983.47
2022-10-09T20:26:34.188Z,100992.63
2022-10-09T20:29:26.886Z,100983.91
2022-10-09T20:32:15.340Z,100987.41
2022-10-09T20:35:04.055Z,100980.03
2022-10-09T20:37:52.586Z,100986.63
2022-10-09T20:40:41.037Z,100981.72
2022-10-09T20:43:29.467Z,100978.97
2022-10-09T20:46:20.909Z,100973.25
2022-10-09T20:49:14.660Z,100968.03
2022-10-09T20:52:03.120Z,100961.63
2022-10-09T20:54:51.578Z,100963.28
2022-10-09T20:57:40.046Z,100961.59
2022-10-09T21:00:28.619Z,100957.84
2022-10-09T21:03:18.456Z,100954.16
2022-10-09T21:06:08.659Z,100951.13
2022-10-09T21:08:57.961Z,100944.28
2022-10-09T21:11:46.714Z,100944.34
2022-10-09T21:14:35.372Z,100946.44
2022-10-09T21:17:23.831Z,100940.44
2022-10-09T21:20:13.714Z,100933.44
2022-10-09T21:23:06.994Z,100935.34
2022-10-09T21:25:55.590Z,100933.34
2022-10-09T21:28:45.044Z,100928.78
2022-10-09T21:31:35.399Z,100930.44
2022-10-09T21:34:24.860Z,100931.66
2022-10-09T21:37:22.564Z,100923.66
2022-10-09T21:40:11.727Z,100920.69
2022-10-09T21:43:00.099Z,100913.84
2022-10-09T21:45:51.417Z,100916.88
2022-10-09T21:48:40.075Z,100924.22
2022-10-09T21:51:29.036Z,100909.81
2022-10-09T21:54:19.038Z,100915.56
2022-10-09T21:57:07.600Z,100920.84
2022-10-09T21:59:56.211Z,100916.06
2022-10-09T22:02:44.701Z,100908.03
2022-10-09T22:05:33.083Z,100903.09
2022-10-09T22:08:21.686Z,100905.94
2022-10-09T22:11:12.133Z,100900.53
2022-10-09T22:14:00.542Z,100895.19
2022-10-09T22:16:48.925Z,100894.56
2022-10-09T22:19:37.450Z,100893.09
2022-10-09T22:22:26.013Z,100890.63
2022-10-09T22:25:14.485Z,100875.41
2022-10-09T22:28:04.500Z,100884.44
2022-10-09T22:31:03.643Z,100887.28
2022-10-09T22:33:52.213Z,100879.66
2022-10-09T22:36:40.595Z,100882.72
2022-10-09T22:39:29.099Z,100883.53
2022-10-09T22:42:17.811Z,100878.19
2022-10-09T22:45:09.535Z,100872.22
2022-10-09T22:47:58.110Z,100871.78
2022-10-09T22:50:46.659Z,100860.19
2022-10-09T22:53:35.733Z,100858.72
2022-10-09T22:56:25.766Z,100852.19
2022-10-09T22:59:17.915Z,100852.81
2022-10-09T23:02:07.643Z,100851.78
2022-10-09T23:04:56.355Z,100848.09
2022-10-09T23:07:44.732Z,100841.94
2022-10-09T23:10:33.193Z,100848.94
2022-10-09T23:13:22.942Z,100834.72
2022-10-09T23:16:13.127Z,100841.72
2022-10-09T23:19:06.718Z,100836.38
2022-10-09T23:21:55.673Z,100832.06
2022-10-09T23:24:44.176Z,100823.22
2022-10-09T23:27:32.614Z,100818.06
2022-10-09T23:30:21.051Z,100816.00
2022-10-09T23:33:16.813Z,100813.56
2022-10-09T23:36:07.913Z,100806.97
2022-10-09T23:38:57.005Z,100804.06
2022-10-09T23:41:45.499Z,100804.25
2022-10-09T23:44:33.919Z,100804.47
2022-10-09T23:47:22.363Z,100805.47
2022-10-09T23:50:11.026Z,100802.41
2022-10-09T23:53:00.790Z,100797.06
2022-10-09T23:55:49.475Z,100798.72
2022-10-09T23:58:37.908Z,100797.06
